sensor_id;sensor_type;location;lat;lon;timestamp;P1;durP1;ratioP1;P2;durP2;ratioP2
79412;SDS011;68863;49.528;11.010;2023-04-24T00:00:24;2.85;;;0.70;;
79412;SDS011;68863;49.528;11.010;2023-04-24T00:01:24;2.45;;;0.70;;
79412;SDS011;68863;49.528;11.010;2023-04-24T00:02:25;2.77;;;0.80;;
79412;SDS011;68863;49.528;11.010;2023-04-24T00:03:25;3.33;;;1.15;;
79412;SDS011;68863;49.528;11.010;2023-04-24T00:04:27;3.35;;;0.90;;
79412;SDS011;68863;49.528;11.010;2023-04-24T00:05:28;4.17;;;1.03;;
79412;SDS011;68863;49.528;11.010;2023-04-24T00:06:28;3.53;;;0.90;;
79412;SDS011;68863;49.528;11.010;2023-04-24T00:07:34;3.38;;;0.80;;
79412;SDS011;68863;49.528;11.010;2023-04-24T00:08:35;3.30;;;1.00;;
79412;SDS011;68863;49.528;11.010;2023-04-24T00:09:36;3.40;;;0.75;;
79412;SDS011;68863;49.528;11.010;2023-04-24T00:10:36;4.93;;;1.00;;
79412;SDS011;68863;49.528;11.010;2023-04-24T00:11:36;3.78;;;1.00;;
79412;SDS011;68863;49.528;11.010;2023-04-24T00:12:37;2.17;;;0.57;;
79412;SDS011;68863;49.528;11.010;2023-04-24T00:13:37;2.50;;;0.70;;
79412;SDS011;68863;49.528;11.010;2023-04-24T00:14:38;3.92;;;1.33;;
79412;SDS011;68863;49.528;11.010;2023-04-24T00:15:38;4.18;;;0.90;;
79412;SDS011;68863;49.528;11.010;2023-04-24T00:16:39;2.85;;;0.70;;
79412;SDS011;68863;49.528;11.010;2023-04-24T00:17:39;4.65;;;0.80;;
79412;SDS011;68863;49.528;11.010;2023-04-24T00:18:40;3.40;;;0.93;;
79412;SDS011;68863;49.528;11.010;2023-04-24T00:19:41;3.05;;;0.70;;
79412;SDS011;68863;49.528;11.010;2023-04-24T00:20:41;3.25;;;1.00;;
79412;SDS011;68863;49.528;11.010;2023-04-24T00:21:43;4.88;;;1.02;;
79412;SDS011;68863;49.528;11.010;2023-04-24T00:22:43;5.68;;;1.35;;
79412;SDS011;68863;49.528;11.010;2023-04-24T00:23:44;3.93;;;1.43;;
79412;SDS011;68863;49.528;11.010;2023-04-24T00:24:44;3.92;;;1.23;;
79412;SDS011;68863;49.528;11.010;2023-04-24T00:25:44;3.97;;;0.90;;
79412;SDS011;68863;49.528;11.010;2023-04-24T00:26:45;4.13;;;0.90;;
79412;SDS011;68863;49.528;11.010;2023-04-24T00:27:45;3.10;;;0.82;;
79412;SDS011;68863;49.528;11.010;2023-04-24T00:28:45;3.70;;;0.93;;
79412;SDS011;68863;49.528;11.010;2023-04-24T00:29:45;2.80;;;0.77;;
79412;SDS011;68863;49.528;11.010;2023-04-24T00:30:46;3.97;;;1.48;;
79412;SDS011;68863;49.528;11.010;2023-04-24T00:31:46;3.03;;;1.03;;
79412;SDS011;68863;49.528;11.010;2023-04-24T00:32:46;2.85;;;0.75;;
79412;SDS011;68863;49.528;11.010;2023-04-24T00:33:47;3.90;;;0.93;;
79412;SDS011;68863;49.528;11.010;2023-04-24T00:34:47;3.05;;;1.10;;
79412;SDS011;68863;49.528;11.010;2023-04-24T00:35:47;3.55;;;1.33;;
79412;SDS011;68863;49.528;11.010;2023-04-24T00:36:47;3.60;;;0.80;;
79412;SDS011;68863;49.528;11.010;2023-04-24T00:37:52;3.17;;;0.80;;
79412;SDS011;68863;49.528;11.010;2023-04-24T00:38:52;3.63;;;0.65;;
79412;SDS011;68863;49.528;11.010;2023-04-24T00:39:53;2.88;;;1.30;;
79412;SDS011;68863;49.528;11.010;2023-04-24T00:40:53;3.50;;;0.90;;
79412;SDS011;68863;49.528;11.010;2023-04-24T00:41:54;2.70;;;0.70;;
79412;SDS011;68863;49.528;11.010;2023-04-24T00:42:55;3.88;;;1.08;;
79412;SDS011;68863;49.528;11.010;2023-04-24T00:43:56;3.05;;;0.90;;
79412;SDS011;68863;49.528;11.010;2023-04-24T00:44:56;2.70;;;0.88;;
79412;SDS011;68863;49.528;11.010;2023-04-24T00:45:57;3.60;;;0.98;;
79412;SDS011;68863;49.528;11.010;2023-04-24T00:46:59;3.83;;;1.20;;
79412;SDS011;68863;49.528;11.010;2023-04-24T00:48:00;3.13;;;0.95;;
79412;SDS011;68863;49.528;11.010;2023-04-24T00:49:01;3.00;;;0.75;;
79412;SDS011;68863;49.528;11.010;2023-04-24T00:50:06;4.72;;;1.17;;
79412;SDS011;68863;49.528;11.010;2023-04-24T00:51:07;3.00;;;0.75;;
79412;SDS011;68863;49.528;11.010;2023-04-24T00:52:07;3.00;;;1.08;;
79412;SDS011;68863;49.528;11.010;2023-04-24T00:53:08;3.47;;;0.95;;
79412;SDS011;68863;49.528;11.010;2023-04-24T00:54:09;4.85;;;0.90;;
79412;SDS011;68863;49.528;11.010;2023-04-24T00:55:09;3.65;;;0.82;;
79412;SDS011;68863;49.528;11.010;2023-04-24T00:56:10;3.28;;;1.05;;
79412;SDS011;68863;49.528;11.010;2023-04-24T00:57:11;2.25;;;0.60;;
79412;SDS011;68863;49.528;11.010;2023-04-24T00:58:12;2.97;;;0.80;;
79412;SDS011;68863;49.528;11.010;2023-04-24T00:59:13;2.88;;;0.80;;
79412;SDS011;68863;49.528;11.010;2023-04-24T01:00:15;3.65;;;0.90;;
79412;SDS011;68863;49.528;11.010;2023-04-24T01:01:16;3.78;;;1.02;;
79412;SDS011;68863;49.528;11.010;2023-04-24T01:02:18;3.05;;;0.70;;
79412;SDS011;68863;49.528;11.010;2023-04-24T01:03:19;3.55;;;0.80;;
79412;SDS011;68863;49.528;11.010;2023-04-24T01:04:22;3.22;;;1.10;;
79412;SDS011;68863;49.528;11.010;2023-04-24T01:05:22;2.83;;;0.70;;
79412;SDS011;68863;49.528;11.010;2023-04-24T01:06:23;3.17;;;0.80;;
79412;SDS011;68863;49.528;11.010;2023-04-24T01:07:27;4.07;;;1.00;;
79412;SDS011;68863;49.528;11.010;2023-04-24T01:08:27;3.28;;;0.88;;
79412;SDS011;68863;49.528;11.010;2023-04-24T01:09:28;2.30;;;0.70;;
79412;SDS011;68863;49.528;11.010;2023-04-24T01:10:29;3.88;;;0.70;;
79412;SDS011;68863;49.528;11.010;2023-04-24T01:11:32;2.58;;;0.70;;
79412;SDS011;68863;49.528;11.010;2023-04-24T01:12:33;3.10;;;1.02;;
79412;SDS011;68863;49.528;11.010;2023-04-24T01:13:33;2.78;;;0.90;;
79412;SDS011;68863;49.528;11.010;2023-04-24T01:14:34;3.75;;;0.90;;
79412;SDS011;68863;49.528;11.010;2023-04-24T01:15:34;2.42;;;1.10;;
79412;SDS011;68863;49.528;11.010;2023-04-24T01:16:35;3.33;;;0.60;;
79412;SDS011;68863;49.528;11.010;2023-04-24T01:17:35;2.47;;;0.60;;
79412;SDS011;68863;49.528;11.010;2023-04-24T01:18:36;2.65;;;0.63;;
79412;SDS011;68863;49.528;11.010;2023-04-24T01:19:37;3.65;;;0.93;;
79412;SDS011;68863;49.528;11.010;2023-04-24T01:20:41;2.58;;;0.68;;
79412;SDS011;68863;49.528;11.010;2023-04-24T01:21:42;3.03;;;0.73;;
79412;SDS011;68863;49.528;11.010;2023-04-24T01:22:43;3.17;;;1.00;;
79412;SDS011;68863;49.528;11.010;2023-04-24T01:23:44;2.85;;;0.70;;
79412;SDS011;68863;49.528;11.010;2023-04-24T01:24:44;3.13;;;0.80;;
79412;SDS011;68863;49.528;11.010;2023-04-24T01:25:45;3.67;;;0.97;;
79412;SDS011;68863;49.528;11.010;2023-04-24T01:26:46;2.38;;;0.73;;
79412;SDS011;68863;49.528;11.010;2023-04-24T01:27:47;2.58;;;0.70;;
79412;SDS011;68863;49.528;11.010;2023-04-24T01:28:47;1.85;;;0.60;;
79412;SDS011;68863;49.528;11.010;2023-04-24T01:29:48;3.25;;;0.90;;
79412;SDS011;68863;49.528;11.010;2023-04-24T01:30:49;2.85;;;0.52;;
79412;SDS011;68863;49.528;11.010;2023-04-24T01:31:49;2.70;;;0.75;;
79412;SDS011;68863;49.528;11.010;2023-04-24T01:32:50;3.25;;;1.27;;
79412;SDS011;68863;49.528;11.010;2023-04-24T01:33:51;2.33;;;1.02;;
79412;SDS011;68863;49.528;11.010;2023-04-24T01:34:52;3.53;;;0.65;;
79412;SDS011;68863;49.528;11.010;2023-04-24T01:35:53;2.22;;;0.60;;
79412;SDS011;68863;49.528;11.010;2023-04-24T01:36:54;3.13;;;0.70;;
79412;SDS011;68863;49.528;11.010;2023-04-24T01:37:54;3.65;;;1.55;;
79412;SDS011;68863;49.528;11.010;2023-04-24T01:38:54;2.55;;;0.90;;
79412;SDS011;68863;49.528;11.010;2023-04-24T01:39:55;2.67;;;0.60;;
79412;SDS011;68863;49.528;11.010;2023-04-24T01:40:55;2.17;;;0.45;;
79412;SDS011;68863;49.528;11.010;2023-04-24T01:41:56;2.70;;;1.00;;
79412;SDS011;68863;49.528;11.010;2023-04-24T01:42:57;2.55;;;0.80;;
79412;SDS011;68863;49.528;11.010;2023-04-24T01:43:58;2.45;;;0.82;;
79412;SDS011;68863;49.528;11.010;2023-04-24T01:44:59;2.40;;;0.93;;
79412;SDS011;68863;49.528;11.010;2023-04-24T01:45:59;2.22;;;0.57;;
79412;SDS011;68863;49.528;11.010;2023-04-24T01:47:00;3.47;;;1.08;;
79412;SDS011;68863;49.528;11.010;2023-04-24T01:48:01;3.00;;;0.50;;
79412;SDS011;68863;49.528;11.010;2023-04-24T01:49:01;2.53;;;1.00;;
79412;SDS011;68863;49.528;11.010;2023-04-24T01:50:02;2.97;;;0.60;;
79412;SDS011;68863;49.528;11.010;2023-04-24T01:51:03;2.33;;;0.60;;
79412;SDS011;68863;49.528;11.010;2023-04-24T01:52:03;3.90;;;0.97;;
79412;SDS011;68863;49.528;11.010;2023-04-24T01:53:04;2.13;;;0.50;;
79412;SDS011;68863;49.528;11.010;2023-04-24T01:54:05;2.13;;;0.40;;
79412;SDS011;68863;49.528;11.010;2023-04-24T01:55:06;2.13;;;0.70;;
79412;SDS011;68863;49.528;11.010;2023-04-24T01:56:07;2.67;;;0.45;;
79412;SDS011;68863;49.528;11.010;2023-04-24T01:57:07;2.30;;;0.40;;
79412;SDS011;68863;49.528;11.010;2023-04-24T01:58:08;2.80;;;0.50;;
79412;SDS011;68863;49.528;11.010;2023-04-24T01:59:10;2.60;;;0.70;;
79412;SDS011;68863;49.528;11.010;2023-04-24T02:00:11;1.92;;;0.52;;
79412;SDS011;68863;49.528;11.010;2023-04-24T02:01:15;2.17;;;0.40;;
79412;SDS011;68863;49.528;11.010;2023-04-24T02:02:18;2.57;;;0.50;;
79412;SDS011;68863;49.528;11.010;2023-04-24T02:03:18;2.35;;;0.50;;
79412;SDS011;68863;49.528;11.010;2023-04-24T02:04:18;3.90;;;0.50;;
79412;SDS011;68863;49.528;11.010;2023-04-24T02:05:19;1.80;;;0.40;;
79412;SDS011;68863;49.528;11.010;2023-04-24T02:06:19;3.22;;;0.90;;
79412;SDS011;68863;49.528;11.010;2023-04-24T02:07:19;2.45;;;0.60;;
79412;SDS011;68863;49.528;11.010;2023-04-24T02:08:20;3.35;;;0.63;;
79412;SDS011;68863;49.528;11.010;2023-04-24T02:09:20;2.27;;;1.00;;
79412;SDS011;68863;49.528;11.010;2023-04-24T02:10:20;2.40;;;0.87;;
79412;SDS011;68863;49.528;11.010;2023-04-24T02:11:21;3.03;;;0.68;;
79412;SDS011;68863;49.528;11.010;2023-04-24T02:12:21;2.37;;;0.40;;
79412;SDS011;68863;49.528;11.010;2023-04-24T02:13:21;2.03;;;0.60;;
79412;SDS011;68863;49.528;11.010;2023-04-24T02:14:22;2.43;;;0.77;;
79412;SDS011;68863;49.528;11.010;2023-04-24T02:15:22;4.27;;;0.73;;
79412;SDS011;68863;49.528;11.010;2023-04-24T02:16:22;3.73;;;1.03;;
79412;SDS011;68863;49.528;11.010;2023-04-24T02:17:22;2.60;;;0.57;;
79412;SDS011;68863;49.528;11.010;2023-04-24T02:18:22;2.13;;;0.60;;
79412;SDS011;68863;49.528;11.010;2023-04-24T02:19:23;1.50;;;0.30;;
79412;SDS011;68863;49.528;11.010;2023-04-24T02:20:23;2.03;;;0.63;;
79412;SDS011;68863;49.528;11.010;2023-04-24T02:21:23;2.42;;;0.60;;
79412;SDS011;68863;49.528;11.010;2023-04-24T02:22:24;3.53;;;0.77;;
79412;SDS011;68863;49.528;11.010;2023-04-24T02:23:24;2.28;;;0.43;;
79412;SDS011;68863;49.528;11.010;2023-04-24T02:24:25;3.75;;;0.60;;
79412;SDS011;68863;49.528;11.010;2023-04-24T02:25:25;2.28;;;0.50;;
79412;SDS011;68863;49.528;11.010;2023-04-24T02:26:25;2.00;;;0.40;;
79412;SDS011;68863;49.528;11.010;2023-04-24T02:27:26;2.38;;;0.50;;
79412;SDS011;68863;49.528;11.010;2023-04-24T02:28:26;2.97;;;0.47;;
79412;SDS011;68863;49.528;11.010;2023-04-24T02:29:26;1.67;;;0.40;;
79412;SDS011;68863;49.528;11.010;2023-04-24T02:30:26;2.07;;;0.50;;
79412;SDS011;68863;49.528;11.010;2023-04-24T02:31:27;2.53;;;0.73;;
79412;SDS011;68863;49.528;11.010;2023-04-24T02:32:27;2.33;;;0.88;;
79412;SDS011;68863;49.528;11.010;2023-04-24T02:33:27;2.00;;;0.43;;
79412;SDS011;68863;49.528;11.010;2023-04-24T02:34:28;2.10;;;0.70;;
79412;SDS011;68863;49.528;11.010;2023-04-24T02:35:28;2.53;;;0.60;;
79412;SDS011;68863;49.528;11.010;2023-04-24T02:36:28;2.72;;;0.80;;
79412;SDS011;68863;49.528;11.010;2023-04-24T02:37:30;1.45;;;0.32;;
79412;SDS011;68863;49.528;11.010;2023-04-24T02:38:30;2.20;;;0.70;;
79412;SDS011;68863;49.528;11.010;2023-04-24T02:39:30;1.93;;;0.40;;
79412;SDS011;68863;49.528;11.010;2023-04-24T02:40:30;1.73;;;0.40;;
79412;SDS011;68863;49.528;11.010;2023-04-24T02:41:31;2.58;;;0.40;;
79412;SDS011;68863;49.528;11.010;2023-04-24T02:42:32;1.80;;;0.52;;
79412;SDS011;68863;49.528;11.010;2023-04-24T02:43:32;1.87;;;0.50;;
79412;SDS011;68863;49.528;11.010;2023-04-24T02:44:33;1.73;;;0.57;;
79412;SDS011;68863;49.528;11.010;2023-04-24T02:45:33;1.93;;;0.50;;
79412;SDS011;68863;49.528;11.010;2023-04-24T02:46:34;1.45;;;0.35;;
79412;SDS011;68863;49.528;11.010;2023-04-24T02:47:34;2.23;;;0.70;;
79412;SDS011;68863;49.528;11.010;2023-04-24T02:48:35;2.22;;;0.52;;
79412;SDS011;68863;49.528;11.010;2023-04-24T02:49:35;3.63;;;0.53;;
79412;SDS011;68863;49.528;11.010;2023-04-24T02:50:35;2.20;;;0.60;;
79412;SDS011;68863;49.528;11.010;2023-04-24T02:51:35;1.98;;;0.50;;
79412;SDS011;68863;49.528;11.010;2023-04-24T02:52:40;2.50;;;0.60;;
79412;SDS011;68863;49.528;11.010;2023-04-24T02:53:40;1.80;;;0.40;;
79412;SDS011;68863;49.528;11.010;2023-04-24T02:54:41;3.28;;;0.40;;
79412;SDS011;68863;49.528;11.010;2023-04-24T02:55:41;2.28;;;0.35;;
79412;SDS011;68863;49.528;11.010;2023-04-24T02:56:41;1.77;;;0.50;;
79412;SDS011;68863;49.528;11.010;2023-04-24T02:57:42;2.60;;;0.63;;
79412;SDS011;68863;49.528;11.010;2023-04-24T02:58:42;1.97;;;0.50;;
79412;SDS011;68863;49.528;11.010;2023-04-24T02:59:42;1.90;;;0.60;;
79412;SDS011;68863;49.528;11.010;2023-04-24T03:00:42;1.88;;;0.40;;
79412;SDS011;68863;49.528;11.010;2023-04-24T03:01:43;1.90;;;0.40;;
79412;SDS011;68863;49.528;11.010;2023-04-24T03:02:43;2.03;;;0.77;;
79412;SDS011;68863;49.528;11.010;2023-04-24T03:03:44;2.17;;;0.40;;
79412;SDS011;68863;49.528;11.010;2023-04-24T03:04:49;1.77;;;0.50;;
79412;SDS011;68863;49.528;11.010;2023-04-24T03:05:49;2.20;;;0.70;;
79412;SDS011;68863;49.528;11.010;2023-04-24T03:06:50;2.10;;;0.40;;
79412;SDS011;68863;49.528;11.010;2023-04-24T03:07:52;1.92;;;0.30;;
79412;SDS011;68863;49.528;11.010;2023-04-24T03:08:53;2.88;;;0.45;;
79412;SDS011;68863;49.528;11.010;2023-04-24T03:09:53;1.23;;;0.30;;
79412;SDS011;68863;49.528;11.010;2023-04-24T03:10:54;2.10;;;0.47;;
79412;SDS011;68863;49.528;11.010;2023-04-24T03:11:54;2.20;;;0.60;;
79412;SDS011;68863;49.528;11.010;2023-04-24T03:12:55;1.65;;;0.30;;
79412;SDS011;68863;49.528;11.010;2023-04-24T03:13:55;1.70;;;0.33;;
79412;SDS011;68863;49.528;11.010;2023-04-24T03:14:56;1.77;;;0.30;;
79412;SDS011;68863;49.528;11.010;2023-04-24T03:15:56;1.83;;;0.40;;
79412;SDS011;68863;49.528;11.010;2023-04-24T03:16:56;2.40;;;1.17;;
79412;SDS011;68863;49.528;11.010;2023-04-24T03:18:04;1.65;;;0.45;;
79412;SDS011;68863;49.528;11.010;2023-04-24T03:19:04;2.55;;;0.50;;
79412;SDS011;68863;49.528;11.010;2023-04-24T03:20:04;3.33;;;0.60;;
79412;SDS011;68863;49.528;11.010;2023-04-24T03:21:06;2.80;;;0.68;;
79412;SDS011;68863;49.528;11.010;2023-04-24T03:22:06;2.28;;;0.30;;
79412;SDS011;68863;49.528;11.010;2023-04-24T03:23:06;1.70;;;0.40;;
79412;SDS011;68863;49.528;11.010;2023-04-24T03:24:07;1.63;;;0.40;;
79412;SDS011;68863;49.528;11.010;2023-04-24T03:25:08;2.20;;;0.60;;
79412;SDS011;68863;49.528;11.010;2023-04-24T03:26:16;1.75;;;0.55;;
79412;SDS011;68863;49.528;11.010;2023-04-24T03:27:16;1.67;;;0.30;;
79412;SDS011;68863;49.528;11.010;2023-04-24T03:28:17;2.73;;;0.50;;
79412;SDS011;68863;49.528;11.010;2023-04-24T03:29:17;1.33;;;0.40;;
79412;SDS011;68863;49.528;11.010;2023-04-24T03:30:17;2.27;;;0.50;;
79412;SDS011;68863;49.528;11.010;2023-04-24T03:31:17;1.77;;;0.30;;
79412;SDS011;68863;49.528;11.010;2023-04-24T03:32:19;1.33;;;0.45;;
79412;SDS011;68863;49.528;11.010;2023-04-24T03:33:19;2.90;;;0.30;;
79412;SDS011;68863;49.528;11.010;2023-04-24T03:34:19;1.52;;;0.30;;
79412;SDS011;68863;49.528;11.010;2023-04-24T03:35:20;2.85;;;0.40;;
79412;SDS011;68863;49.528;11.010;2023-04-24T03:36:21;1.90;;;0.60;;
79412;SDS011;68863;49.528;11.010;2023-04-24T03:37:22;2.13;;;0.50;;
79412;SDS011;68863;49.528;11.010;2023-04-24T03:38:22;1.13;;;0.30;;
79412;SDS011;68863;49.528;11.010;2023-04-24T03:39:22;2.60;;;0.57;;
79412;SDS011;68863;49.528;11.010;2023-04-24T03:40:24;1.77;;;0.40;;
79412;SDS011;68863;49.528;11.010;2023-04-24T03:41:27;2.03;;;0.40;;
79412;SDS011;68863;49.528;11.010;2023-04-24T03:42:27;3.87;;;0.30;;
79412;SDS011;68863;49.528;11.010;2023-04-24T03:43:27;2.40;;;0.40;;
79412;SDS011;68863;49.528;11.010;2023-04-24T03:44:27;2.63;;;0.70;;
79412;SDS011;68863;49.528;11.010;2023-04-24T03:45:28;2.70;;;0.77;;
79412;SDS011;68863;49.528;11.010;2023-04-24T03:46:28;1.57;;;0.50;;
79412;SDS011;68863;49.528;11.010;2023-04-24T03:47:28;1.77;;;0.60;;
79412;SDS011;68863;49.528;11.010;2023-04-24T03:48:28;2.80;;;0.35;;
79412;SDS011;68863;49.528;11.010;2023-04-24T03:49:29;3.13;;;0.68;;
79412;SDS011;68863;49.528;11.010;2023-04-24T03:50:29;1.38;;;0.30;;
79412;SDS011;68863;49.528;11.010;2023-04-24T03:51:29;3.00;;;0.53;;
79412;SDS011;68863;49.528;11.010;2023-04-24T03:52:30;2.60;;;0.35;;
79412;SDS011;68863;49.528;11.010;2023-04-24T03:53:31;1.73;;;0.43;;
79412;SDS011;68863;49.528;11.010;2023-04-24T03:54:31;1.97;;;0.40;;
79412;SDS011;68863;49.528;11.010;2023-04-24T03:55:31;1.13;;;0.40;;
79412;SDS011;68863;49.528;11.010;2023-04-24T03:56:31;2.53;;;1.03;;
79412;SDS011;68863;49.528;11.010;2023-04-24T03:57:32;2.00;;;0.63;;
79412;SDS011;68863;49.528;11.010;2023-04-24T03:58:35;3.33;;;0.50;;
79412;SDS011;68863;49.528;11.010;2023-04-24T03:59:35;2.13;;;0.50;;
79412;SDS011;68863;49.528;11.010;2023-04-24T04:00:35;1.77;;;0.40;;
79412;SDS011;68863;49.528;11.010;2023-04-24T04:01:37;2.65;;;0.50;;
79412;SDS011;68863;49.528;11.010;2023-04-24T04:02:37;1.98;;;0.40;;
79412;SDS011;68863;49.528;11.010;2023-04-24T04:03:38;2.75;;;0.55;;
79412;SDS011;68863;49.528;11.010;2023-04-24T04:04:38;2.28;;;0.30;;
79412;SDS011;68863;49.528;11.010;2023-04-24T04:05:38;1.73;;;0.40;;
79412;SDS011;68863;49.528;11.010;2023-04-24T04:06:39;1.75;;;0.35;;
79412;SDS011;68863;49.528;11.010;2023-04-24T04:07:39;2.80;;;0.50;;
79412;SDS011;68863;49.528;11.010;2023-04-24T04:08:39;2.30;;;0.70;;
79412;SDS011;68863;49.528;11.010;2023-04-24T04:09:42;1.90;;;0.40;;
79412;SDS011;68863;49.528;11.010;2023-04-24T04:10:45;1.92;;;0.50;;
79412;SDS011;68863;49.528;11.010;2023-04-24T04:11:45;2.53;;;0.57;;
79412;SDS011;68863;49.528;11.010;2023-04-24T04:12:46;3.17;;;0.55;;
79412;SDS011;68863;49.528;11.010;2023-04-24T04:13:46;1.75;;;0.50;;
79412;SDS011;68863;49.528;11.010;2023-04-24T04:14:47;4.47;;;0.90;;
79412;SDS011;68863;49.528;11.010;2023-04-24T04:15:48;2.57;;;0.60;;
79412;SDS011;68863;49.528;11.010;2023-04-24T04:16:48;2.17;;;0.52;;
79412;SDS011;68863;49.528;11.010;2023-04-24T04:17:48;1.75;;;0.55;;
79412;SDS011;68863;49.528;11.010;2023-04-24T04:18:49;2.15;;;0.40;;
79412;SDS011;68863;49.528;11.010;2023-04-24T04:20:57;4.05;;;0.57;;
79412;SDS011;68863;49.528;11.010;2023-04-24T04:24:15;2.67;;;0.65;;
79412;SDS011;68863;49.528;11.010;2023-04-24T04:25:28;1.70;;;0.40;;
79412;SDS011;68863;49.528;11.010;2023-04-24T04:26:30;3.15;;;1.83;;
79412;SDS011;68863;49.528;11.010;2023-04-24T04:27:44;2.13;;;0.60;;
79412;SDS011;68863;49.528;11.010;2023-04-24T04:28:59;1.95;;;0.60;;
79412;SDS011;68863;49.528;11.010;2023-04-24T04:30:03;1.83;;;0.40;;
79412;SDS011;68863;49.528;11.010;2023-04-24T04:32:12;2.65;;;0.70;;
79412;SDS011;68863;49.528;11.010;2023-04-24T04:33:13;3.47;;;0.60;;
79412;SDS011;68863;49.528;11.010;2023-04-24T04:35:15;2.83;;;0.40;;
79412;SDS011;68863;49.528;11.010;2023-04-24T04:36:16;3.83;;;0.75;;
79412;SDS011;68863;49.528;11.010;2023-04-24T04:37:17;2.67;;;0.77;;
79412;SDS011;68863;49.528;11.010;2023-04-24T04:38:17;2.83;;;0.67;;
79412;SDS011;68863;49.528;11.010;2023-04-24T04:39:24;4.20;;;0.60;;
79412;SDS011;68863;49.528;11.010;2023-04-24T04:40:27;1.33;;;0.32;;
79412;SDS011;68863;49.528;11.010;2023-04-24T04:41:28;2.97;;;0.80;;
79412;SDS011;68863;49.528;11.010;2023-04-24T04:42:28;2.20;;;0.60;;
79412;SDS011;68863;49.528;11.010;2023-04-24T04:43:29;2.22;;;0.70;;
79412;SDS011;68863;49.528;11.010;2023-04-24T04:44:32;1.92;;;0.60;;
79412;SDS011;68863;49.528;11.010;2023-04-24T04:45:32;2.57;;;0.73;;
79412;SDS011;68863;49.528;11.010;2023-04-24T04:46:34;2.47;;;0.60;;
79412;SDS011;68863;49.528;11.010;2023-04-24T04:47:36;2.33;;;0.85;;
79412;SDS011;68863;49.528;11.010;2023-04-24T04:48:36;3.38;;;0.93;;
79412;SDS011;68863;49.528;11.010;2023-04-24T04:49:37;3.92;;;0.75;;
79412;SDS011;68863;49.528;11.010;2023-04-24T04:50:38;2.60;;;0.70;;
79412;SDS011;68863;49.528;11.010;2023-04-24T04:51:39;5.00;;;0.60;;
79412;SDS011;68863;49.528;11.010;2023-04-24T04:52:39;2.20;;;0.65;;
79412;SDS011;68863;49.528;11.010;2023-04-24T04:53:39;3.30;;;0.50;;
79412;SDS011;68863;49.528;11.010;2023-04-24T04:54:40;3.00;;;1.23;;
79412;SDS011;68863;49.528;11.010;2023-04-24T04:55:40;2.67;;;0.90;;
79412;SDS011;68863;49.528;11.010;2023-04-24T04:56:40;4.38;;;0.80;;
79412;SDS011;68863;49.528;11.010;2023-04-24T04:57:40;3.93;;;2.00;;
79412;SDS011;68863;49.528;11.010;2023-04-24T04:58:41;2.83;;;0.53;;
79412;SDS011;68863;49.528;11.010;2023-04-24T04:59:41;3.60;;;1.00;;
79412;SDS011;68863;49.528;11.010;2023-04-24T05:00:41;3.83;;;0.60;;
79412;SDS011;68863;49.528;11.010;2023-04-24T05:01:42;3.15;;;0.60;;
79412;SDS011;68863;49.528;11.010;2023-04-24T05:02:42;2.42;;;0.82;;
79412;SDS011;68863;49.528;11.010;2023-04-24T05:03:43;2.88;;;0.73;;
79412;SDS011;68863;49.528;11.010;2023-04-24T05:04:43;3.00;;;1.00;;
79412;SDS011;68863;49.528;11.010;2023-04-24T05:05:44;2.22;;;0.50;;
79412;SDS011;68863;49.528;11.010;2023-04-24T05:06:44;3.67;;;1.05;;
79412;SDS011;68863;49.528;11.010;2023-04-24T05:07:44;5.45;;;2.97;;
79412;SDS011;68863;49.528;11.010;2023-04-24T05:08:45;3.10;;;1.02;;
79412;SDS011;68863;49.528;11.010;2023-04-24T05:09:45;2.45;;;0.50;;
79412;SDS011;68863;49.528;11.010;2023-04-24T05:10:45;4.18;;;0.70;;
79412;SDS011;68863;49.528;11.010;2023-04-24T05:11:45;2.55;;;0.68;;
79412;SDS011;68863;49.528;11.010;2023-04-24T05:12:46;3.67;;;1.23;;
79412;SDS011;68863;49.528;11.010;2023-04-24T05:13:46;3.53;;;0.60;;
79412;SDS011;68863;49.528;11.010;2023-04-24T05:14:46;3.30;;;0.63;;
79412;SDS011;68863;49.528;11.010;2023-04-24T05:15:46;2.35;;;0.75;;
79412;SDS011;68863;49.528;11.010;2023-04-24T05:16:47;3.55;;;0.80;;
79412;SDS011;68863;49.528;11.010;2023-04-24T05:17:47;3.00;;;0.60;;
79412;SDS011;68863;49.528;11.010;2023-04-24T05:18:47;3.00;;;0.70;;
79412;SDS011;68863;49.528;11.010;2023-04-24T05:19:48;5.07;;;1.13;;
79412;SDS011;68863;49.528;11.010;2023-04-24T05:20:48;2.70;;;0.67;;
79412;SDS011;68863;49.528;11.010;2023-04-24T05:21:48;4.78;;;0.80;;
79412;SDS011;68863;49.528;11.010;2023-04-24T05:22:49;3.70;;;0.90;;
79412;SDS011;68863;49.528;11.010;2023-04-24T05:23:49;3.33;;;0.80;;
79412;SDS011;68863;49.528;11.010;2023-04-24T05:24:49;3.47;;;0.70;;
79412;SDS011;68863;49.528;11.010;2023-04-24T05:25:50;4.15;;;1.10;;
79412;SDS011;68863;49.528;11.010;2023-04-24T05:26:50;2.97;;;1.10;;
79412;SDS011;68863;49.528;11.010;2023-04-24T05:27:50;3.17;;;0.90;;
79412;SDS011;68863;49.528;11.010;2023-04-24T05:28:51;5.07;;;1.20;;
79412;SDS011;68863;49.528;11.010;2023-04-24T05:30:00;3.28;;;1.05;;
79412;SDS011;68863;49.528;11.010;2023-04-24T05:31:06;2.80;;;0.80;;
79412;SDS011;68863;49.528;11.010;2023-04-24T05:32:06;3.50;;;1.13;;
79412;SDS011;68863;49.528;11.010;2023-04-24T05:33:06;3.40;;;1.07;;
79412;SDS011;68863;49.528;11.010;2023-04-24T05:34:06;3.90;;;0.90;;
79412;SDS011;68863;49.528;11.010;2023-04-24T05:35:07;3.50;;;1.17;;
79412;SDS011;68863;49.528;11.010;2023-04-24T05:36:07;4.32;;;0.88;;
79412;SDS011;68863;49.528;11.010;2023-04-24T05:37:08;4.00;;;0.95;;
79412;SDS011;68863;49.528;11.010;2023-04-24T05:38:09;3.53;;;1.15;;
79412;SDS011;68863;49.528;11.010;2023-04-24T05:39:10;8.57;;;4.90;;
79412;SDS011;68863;49.528;11.010;2023-04-24T05:40:13;12.48;;;5.38;;
79412;SDS011;68863;49.528;11.010;2023-04-24T05:41:19;13.55;;;7.35;;
79412;SDS011;68863;49.528;11.010;2023-04-24T05:42:19;12.40;;;7.57;;
79412;SDS011;68863;49.528;11.010;2023-04-24T05:43:20;11.13;;;8.30;;
79412;SDS011;68863;49.528;11.010;2023-04-24T05:44:20;5.82;;;2.53;;
79412;SDS011;68863;49.528;11.010;2023-04-24T05:45:20;5.00;;;1.90;;
79412;SDS011;68863;49.528;11.010;2023-04-24T05:46:21;3.92;;;1.40;;
79412;SDS011;68863;49.528;11.010;2023-04-24T05:47:21;2.85;;;1.05;;
79412;SDS011;68863;49.528;11.010;2023-04-24T05:48:22;3.58;;;1.25;;
79412;SDS011;68863;49.528;11.010;2023-04-24T05:49:22;3.72;;;1.10;;
79412;SDS011;68863;49.528;11.010;2023-04-24T05:50:23;3.72;;;0.90;;
79412;SDS011;68863;49.528;11.010;2023-04-24T05:53:38;3.40;;;1.33;;
79412;SDS011;68863;49.528;11.010;2023-04-24T06:00:43;2.78;;;0.82;;
79412;SDS011;68863;49.528;11.010;2023-04-24T06:01:48;2.95;;;0.60;;
79412;SDS011;68863;49.528;11.010;2023-04-24T06:02:48;3.47;;;0.75;;
79412;SDS011;68863;49.528;11.010;2023-04-24T06:03:49;2.17;;;0.52;;
79412;SDS011;68863;49.528;11.010;2023-04-24T06:04:49;2.63;;;0.70;;
79412;SDS011;68863;49.528;11.010;2023-04-24T06:05:50;2.78;;;0.57;;
79412;SDS011;68863;49.528;11.010;2023-04-24T06:06:51;4.30;;;0.80;;
79412;SDS011;68863;49.528;11.010;2023-04-24T06:07:55;3.35;;;0.85;;
79412;SDS011;68863;49.528;11.010;2023-04-24T06:08:56;4.40;;;0.70;;
79412;SDS011;68863;49.528;11.010;2023-04-24T06:09:56;3.45;;;0.50;;
79412;SDS011;68863;49.528;11.010;2023-04-24T06:10:57;5.70;;;0.63;;
79412;SDS011;68863;49.528;11.010;2023-04-24T06:11:57;2.58;;;0.50;;
79412;SDS011;68863;49.528;11.010;2023-04-24T06:14:31;3.67;;;0.70;;
79412;SDS011;68863;49.528;11.010;2023-04-24T06:15:31;2.65;;;0.90;;
79412;SDS011;68863;49.528;11.010;2023-04-24T06:16:31;2.67;;;0.60;;